
Distance (Route):
Temperature : -33.9°C
Humidity : 0%
Pressure : 0hPa| Receiver | Frames | First received | Last received |
|---|---|---|---|
| WB7NNF | 361 | 2026-08-30 17:20:29 | 2026-08-30 19:34:48 |
| Receiver | Date | Latitude | Longitude | Direction | Speed | Altitude | Climb | Temperature | Humidity | Pressure | Voltage | Killtimer | Uptime | BKT | XDATA |
|---|---|---|---|---|---|---|---|---|---|---|---|---|---|---|---|
| WB7NNF | 2026-08-30 19:34:48 | 47.35848 | -116.60376 | 122° | 99km/h | 8759m | -4.7m/s | -33.9°C | 0% | 0hPa | 0V | 00:00:00 | 00:00:00 | 00:00:00 | |
| WB7NNF | 2026-08-30 19:34:07 | 47.36427 | -116.61618 | 123° | 97km/h | 8940m | -4.6m/s | -35.5°C | 0% | 0hPa | 0V | 00:00:00 | 00:00:00 | 00:00:00 | |
| WB7NNF | 2026-08-30 19:33:44 | 47.36769 | -116.62337 | 126° | 97km/h | 9047m | -4.7m/s | -36.3°C | 0% | 0hPa | 0V | 00:00:00 | 00:00:00 | 00:00:00 | |
| WB7NNF | 2026-08-30 19:33:22 | 47.37088 | -116.63038 | 127° | 106km/h | 9153m | -4.9m/s | -37.3°C | 0% | 0hPa | 0V | 00:00:00 | 00:00:00 | 00:00:00 | |
| WB7NNF | 2026-08-30 19:33:01 | 47.37401 | -116.63739 | 121° | 106km/h | 9261m | -5.0m/s | -38.1°C | 0% | 0hPa | 0V | 00:00:00 | 00:00:00 | 00:00:00 | |
| WB7NNF | 2026-08-30 19:32:39 | 47.37708 | -116.64463 | 120° | 100km/h | 9370m | -5.1m/s | -38.8°C | 0% | 0hPa | 0V | 00:00:00 | 00:00:00 | 00:00:00 | |
| WB7NNF | 2026-08-30 19:32:15 | 47.38025 | -116.65231 | 123° | 99km/h | 9487m | -5.1m/s | 0°C | 0% | 0hPa | 0V | 00:00:00 | 00:00:00 | 00:00:00 | |
| WB7NNF | 2026-08-30 19:31:53 | 47.38346 | -116.66016 | 125° | 106km/h | 9604m | -5.2m/s | 0°C | 0% | 0hPa | 0V | 00:00:00 | 00:00:00 | 00:00:00 | |
| WB7NNF | 2026-08-30 19:28:13 | 47.41632 | -116.73598 | 129° | 106km/h | 10702m | -4.9m/s | -48.9°C | 0% | 0hPa | 0V | 00:00:00 | 00:00:00 | 00:00:00 | |
| WB7NNF | 2026-08-30 19:27:53 | 47.41980 | -116.74178 | 128° | 113km/h | 10789m | -4.8m/s | -49.5°C | 0% | 0hPa | 0V | 00:00:00 | 00:00:00 | 00:00:00 | |
| WB7NNF | 2026-08-30 19:27:31 | 47.42327 | -116.74869 | 130° | 111km/h | 10891m | -5.0m/s | -50.4°C | 0% | 0hPa | 0V | 00:00:00 | 00:00:00 | 00:00:00 | |
| WB7NNF | 2026-08-30 19:27:10 | 47.42677 | -116.75566 | 126° | 110km/h | 10997m | -5.0m/s | -51.1°C | 0% | 0hPa | 0V | 00:00:00 | 00:00:00 | 00:00:00 | |
| WB7NNF | 2026-08-30 19:26:50 | 47.43033 | -116.76299 | 126° | 120km/h | 11104m | -4.9m/s | -51.7°C | 0% | 0hPa | 0V | 00:00:00 | 00:00:00 | 00:00:00 | |
| WB7NNF | 2026-08-30 19:26:29 | 47.43408 | -116.76988 | 130° | 124km/h | 11207m | -5.2m/s | -52.3°C | 0% | 0hPa | 0V | 00:00:00 | 00:00:00 | 00:00:00 | |
| WB7NNF | 2026-08-30 19:26:09 | 47.43817 | -116.77704 | 134° | 120km/h | 11314m | -5.1m/s | -52.6°C | 0% | 0hPa | 0V | 00:00:00 | 00:00:00 | 00:00:00 | |
| WB7NNF | 2026-08-30 19:25:48 | 47.44219 | -116.78359 | 135° | 110km/h | 11417m | -5.1m/s | -52.9°C | 0% | 0hPa | 0V | 00:00:00 | 00:00:00 | 00:00:00 | |
| WB7NNF | 2026-08-30 19:25:28 | 47.44659 | -116.79014 | 135° | 115km/h | 11525m | -5.1m/s | -53.3°C | 0% | 0hPa | 0V | 00:00:00 | 00:00:00 | 00:00:00 | |
| WB7NNF | 2026-08-30 19:25:07 | 47.45099 | -116.79649 | 134° | 108km/h | 11633m | -5.1m/s | -53.5°C | 0% | 0hPa | 0V | 00:00:00 | 00:00:00 | 00:00:00 | |
| WB7NNF | 2026-08-30 19:24:46 | 47.45460 | -116.80215 | 128° | 102km/h | 11737m | -5.3m/s | -53.9°C | 0% | 0hPa | 0V | 00:00:00 | 00:00:00 | 00:00:00 | |
| WB7NNF | 2026-08-30 19:24:26 | 47.45773 | -116.80833 | 124° | 106km/h | 11847m | -5.2m/s | -53.7°C | 0% | 0hPa | 0V | 00:00:00 | 00:00:00 | 00:00:00 | |
| WB7NNF | 2026-08-30 19:24:05 | 47.46037 | -116.81487 | 125° | 102km/h | 11954m | -5.3m/s | -51.9°C | 0% | 0hPa | 0V | 00:00:00 | 00:00:00 | 00:00:00 | |
| WB7NNF | 2026-08-30 19:23:45 | 47.46305 | -116.82078 | 127° | 84km/h | 12067m | -5.4m/s | -52.0°C | 0% | 0hPa | 0V | 00:00:00 | 00:00:00 | 00:00:00 | |
| WB7NNF | 2026-08-30 19:23:24 | 47.46535 | -116.82612 | 125° | 78km/h | 12177m | -5.5m/s | -52.1°C | 0% | 0hPa | 0V | 00:00:00 | 00:00:00 | 00:00:00 | |
| WB7NNF | 2026-08-30 19:23:04 | 47.46756 | -116.83147 | 115° | 75km/h | 12294m | -5.4m/s | -52.4°C | 0% | 0hPa | 0V | 00:00:00 | 00:00:00 | 00:00:00 | |
| WB7NNF | 2026-08-30 19:22:42 | 47.46927 | -116.83690 | 116° | 86km/h | 12409m | -5.6m/s | -51.8°C | 0% | 0hPa | 0V | 00:00:00 | 00:00:00 | 00:00:00 | |
| WB7NNF | 2026-08-30 19:22:21 | 47.47109 | -116.84274 | 120° | 84km/h | 12525m | -5.3m/s | -51.2°C | 0% | 0hPa | 0V | 00:00:00 | 00:00:00 | 00:00:00 | |
| WB7NNF | 2026-08-30 19:21:57 | 47.47290 | -116.84883 | 110° | 68km/h | 12658m | -5.4m/s | -51.6°C | 0% | 0hPa | 0V | 00:00:00 | 00:00:00 | 00:00:00 | |
| WB7NNF | 2026-08-30 19:21:01 | 47.47499 | -116.86478 | 105° | 89km/h | 12975m | -5.7m/s | -51.0°C | 0% | 0hPa | 0V | 00:00:00 | 00:00:00 | 00:00:00 | |
| WB7NNF | 2026-08-30 19:20:40 | 47.47623 | -116.87134 | 116° | 82km/h | 13097m | -5.7m/s | -50.7°C | 0% | 0hPa | 0V | 00:00:00 | 00:00:00 | 00:00:00 | |
| WB7NNF | 2026-08-30 19:20:19 | 47.47796 | -116.87657 | 121° | 66km/h | 13215m | -5.8m/s | -50.6°C | 0% | 0hPa | 0V | 00:00:00 | 00:00:00 | 00:00:00 | |
| WB7NNF | 2026-08-30 19:19:59 | 47.47956 | -116.88100 | 110° | 60km/h | 13341m | -5.8m/s | -51.6°C | 0% | 0hPa | 0V | 00:00:00 | 00:00:00 | 00:00:00 | |
| WB7NNF | 2026-08-30 19:19:38 | 47.48067 | -116.88520 | 107° | 64km/h | 13463m | -6.2m/s | -51.3°C | 0% | 0hPa | 0V | 00:00:00 | 00:00:00 | 00:00:00 | |
| WB7NNF | 2026-08-30 19:19:18 | 47.48194 | -116.88918 | 120° | 57km/h | 13593m | -6.1m/s | -51.5°C | 0% | 0hPa | 0V | 00:00:00 | 00:00:00 | 00:00:00 | |
| WB7NNF | 2026-08-30 19:18:57 | 47.48286 | -116.89259 | 115° | 46km/h | 13718m | -6.1m/s | -52.1°C | 0% | 0hPa | 0V | 00:00:00 | 00:00:00 | 00:00:00 | |
| WB7NNF | 2026-08-30 19:18:37 | 47.48336 | -116.89635 | 97° | 47km/h | 13848m | -6.2m/s | -52.1°C | 0% | 0hPa | 0V | 00:00:00 | 00:00:00 | 00:00:00 | |
| WB7NNF | 2026-08-30 19:18:16 | 47.48419 | -116.89990 | 102° | 51km/h | 13972m | -6.1m/s | -51.8°C | 0% | 0hPa | 0V | 00:00:00 | 00:00:00 | 00:00:00 | |
| WB7NNF | 2026-08-30 19:17:56 | 47.48499 | -116.90349 | 119° | 53km/h | 14105m | -6.3m/s | -50.8°C | 0% | 0hPa | 0V | 00:00:00 | 00:00:00 | 00:00:00 | |
| WB7NNF | 2026-08-30 19:17:15 | 47.48590 | -116.90931 | 87° | 38km/h | 14364m | -6.1m/s | -52.0°C | 0% | 0hPa | 0V | 00:00:00 | 00:00:00 | 00:00:00 | |
| WB7NNF | 2026-08-30 19:16:54 | 47.48568 | -116.91261 | 86° | 51km/h | 14493m | -6.4m/s | -51.4°C | 0% | 0hPa | 0V | 00:00:00 | 00:00:00 | 00:00:00 | |
| WB7NNF | 2026-08-30 19:16:34 | 47.48551 | -116.91607 | 96° | 40km/h | 14631m | -6.6m/s | -51.2°C | 0% | 0hPa | 0V | 00:00:00 | 00:00:00 | 00:00:00 | |
| WB7NNF | 2026-08-30 19:16:13 | 47.48541 | -116.91990 | 83° | 53km/h | 14768m | -7.1m/s | -51.3°C | 0% | 0hPa | 0V | 00:00:00 | 00:00:00 | 00:00:00 | |
| WB7NNF | 2026-08-30 19:15:53 | 47.48516 | -116.92483 | 89° | 71km/h | 14918m | -7.2m/s | -50.5°C | 0% | 0hPa | 0V | 00:00:00 | 00:00:00 | 00:00:00 | |
| WB7NNF | 2026-08-30 19:15:32 | 47.48536 | -116.92896 | 106° | 55km/h | 15063m | -7.1m/s | -50.2°C | 0% | 0hPa | 0V | 00:00:00 | 00:00:00 | 00:00:00 | |
| WB7NNF | 2026-08-30 19:15:12 | 47.48586 | -116.93301 | 96° | 42km/h | 15215m | -7.0m/s | -50.0°C | 0% | 0hPa | 0V | 00:00:00 | 00:00:00 | 00:00:00 | |
| WB7NNF | 2026-08-30 19:14:51 | 47.48618 | -116.93575 | 99° | 33km/h | 15362m | -6.9m/s | -50.1°C | 0% | 0hPa | 0V | 00:00:00 | 00:00:00 | 00:00:00 | |
| WB7NNF | 2026-08-30 19:14:30 | 47.48589 | -116.93743 | 82° | 24km/h | 15502m | -7.0m/s | -50.5°C | 0% | 0hPa | 0V | 00:00:00 | 00:00:00 | 00:00:00 | |
| WB7NNF | 2026-08-30 19:14:10 | 47.48523 | -116.93952 | 58° | 27km/h | 15650m | -7.2m/s | -51.8°C | 0% | 0hPa | 0V | 00:00:00 | 00:00:00 | 00:00:00 | |
| WB7NNF | 2026-08-30 19:13:49 | 47.48449 | -116.94199 | 49° | 40km/h | 15794m | -7.1m/s | -51.6°C | 0% | 0hPa | 0V | 00:00:00 | 00:00:00 | 00:00:00 | |
| WB7NNF | 2026-08-30 19:13:29 | 47.48345 | -116.94406 | 67° | 33km/h | 15946m | -7.3m/s | -51.8°C | 0% | 0hPa | 0V | 00:00:00 | 00:00:00 | 00:00:00 | |
| WB7NNF | 2026-08-30 19:13:08 | 47.48299 | -116.94608 | 86° | 24km/h | 16096m | -7.6m/s | -51.6°C | 0% | 0hPa | 0V | 00:00:00 | 00:00:00 | 00:00:00 | |
| WB7NNF | 2026-08-30 19:12:48 | 47.48227 | -116.94823 | 55° | 33km/h | 16253m | -7.3m/s | -51.6°C | 0% | 0hPa | 0V | 00:00:00 | 00:00:00 | 00:00:00 | |
| WB7NNF | 2026-08-30 19:12:27 | 47.48151 | -116.95055 | 47° | 42km/h | 16405m | -7.4m/s | -51.2°C | 0% | 0hPa | 0V | 00:00:00 | 00:00:00 | 00:00:00 | |
| WB7NNF | 2026-08-30 19:12:07 | 47.48010 | -116.95316 | 64° | 44km/h | 16568m | -7.6m/s | -51.6°C | 0% | 0hPa | 0V | 00:00:00 | 00:00:00 | 00:00:00 | |
| WB7NNF | 2026-08-30 19:11:46 | 47.47953 | -116.95538 | 83° | 37km/h | 16721m | -7.5m/s | -51.4°C | 0% | 0hPa | 0V | 00:00:00 | 00:00:00 | 00:00:00 | |
| WB7NNF | 2026-08-30 19:11:26 | 47.47916 | -116.95717 | 82° | 24km/h | 16885m | -7.7m/s | -50.9°C | 0% | 0hPa | 0V | 00:00:00 | 00:00:00 | 00:00:00 | |
| WB7NNF | 2026-08-30 19:11:05 | 47.47859 | -116.95862 | 51° | 13km/h | 17043m | -7.9m/s | -50.6°C | 0% | 0hPa | 0V | 00:00:00 | 00:00:00 | 00:00:00 | |
| WB7NNF | 2026-08-30 19:10:45 | 47.47792 | -116.96023 | 48° | 29km/h | 17209m | -7.8m/s | -51.1°C | 0% | 0hPa | 0V | 00:00:00 | 00:00:00 | 00:00:00 | |
| WB7NNF | 2026-08-30 19:10:24 | 47.47717 | -116.96196 | 62° | 35km/h | 17366m | -8.0m/s | -49.9°C | 0% | 0hPa | 0V | 00:00:00 | 00:00:00 | 00:00:00 | |
| WB7NNF | 2026-08-30 19:10:04 | 47.47640 | -116.96390 | 77° | 31km/h | 17533m | -7.8m/s | -50.8°C | 0% | 0hPa | 0V | 00:00:00 | 00:00:00 | 00:00:00 | |
| WB7NNF | 2026-08-30 19:09:43 | 47.47546 | -116.96614 | 44° | 38km/h | 17701m | -8.0m/s | -51.1°C | 0% | 0hPa | 0V | 00:00:00 | 00:00:00 | 00:00:00 | |
| WB7NNF | 2026-08-30 19:09:22 | 47.47467 | -116.96789 | 72° | 29km/h | 17862m | -8.0m/s | -51.5°C | 0% | 0hPa | 0V | 00:00:00 | 00:00:00 | 00:00:00 | |
| WB7NNF | 2026-08-30 19:08:40 | 47.47306 | -116.96853 | 353° | 38km/h | 18227m | -8.7m/s | -52.1°C | 0% | 0hPa | 0V | 00:00:00 | 00:00:00 | 00:00:00 | |
| WB7NNF | 2026-08-30 19:08:19 | 47.47152 | -116.96872 | 23° | 40km/h | 18411m | -8.8m/s | -52.0°C | 0% | 0hPa | 0V | 00:00:00 | 00:00:00 | 00:00:00 | |
| WB7NNF | 2026-08-30 19:07:58 | 47.46981 | -116.96974 | 32° | 46km/h | 18592m | -9.1m/s | -53.0°C | 0% | 0hPa | 0V | 00:00:00 | 00:00:00 | 00:00:00 | |
| WB7NNF | 2026-08-30 19:07:38 | 47.46767 | -116.97137 | 33° | 40km/h | 18786m | -9.1m/s | -52.9°C | 0% | 0hPa | 0V | 00:00:00 | 00:00:00 | 00:00:00 | |
| WB7NNF | 2026-08-30 19:07:16 | 47.46627 | -116.97362 | 43° | 24km/h | 18993m | -9.7m/s | -52.5°C | 0% | 0hPa | 0V | 00:00:00 | 00:00:00 | 00:00:00 | |
| WB7NNF | 2026-08-30 19:06:55 | 47.46583 | -116.97507 | 72° | 26km/h | 19194m | -9.6m/s | -52.4°C | 0% | 0hPa | 0V | 00:00:00 | 00:00:00 | 00:00:00 | |
| WB7NNF | 2026-08-30 19:06:34 | 47.46523 | -116.97627 | 88° | 22km/h | 19386m | -9.6m/s | -52.2°C | 0% | 0hPa | 0V | 00:00:00 | 00:00:00 | 00:00:00 | |
| WB7NNF | 2026-08-30 19:06:14 | 47.46505 | -116.97816 | 111° | 22km/h | 19590m | -9.7m/s | -52.2°C | 0% | 0hPa | 0V | 00:00:00 | 00:00:00 | 00:00:00 | |
| WB7NNF | 2026-08-30 19:05:53 | 47.46546 | -116.97899 | 203° | 20km/h | 19787m | -9.5m/s | -51.2°C | 0% | 0hPa | 0V | 00:00:00 | 00:00:00 | 00:00:00 | |
| WB7NNF | 2026-08-30 19:05:33 | 47.46574 | -116.97837 | 240° | 15km/h | 19992m | -9.8m/s | -51.2°C | 0% | 0hPa | 0V | 00:00:00 | 00:00:00 | 00:00:00 | |
| WB7NNF | 2026-08-30 19:05:12 | 47.46564 | -116.97723 | 245° | 9km/h | 20190m | -10.1m/s | -51.5°C | 0% | 0hPa | 0V | 00:00:00 | 00:00:00 | 00:00:00 | |
| WB7NNF | 2026-08-30 19:04:52 | 47.46511 | -116.97632 | 341° | 11km/h | 20402m | -10.1m/s | -51.7°C | 0% | 0hPa | 0V | 00:00:00 | 00:00:00 | 00:00:00 | |
| WB7NNF | 2026-08-30 19:04:31 | 47.46398 | -116.97603 | 21° | 27km/h | 20609m | -10.4m/s | -52.6°C | 0% | 0hPa | 0V | 00:00:00 | 00:00:00 | 00:00:00 | |
| WB7NNF | 2026-08-30 19:04:11 | 47.46271 | -116.97669 | 60° | 27km/h | 20828m | -10.4m/s | -52.5°C | 0% | 0hPa | 0V | 00:00:00 | 00:00:00 | 00:00:00 | |
| WB7NNF | 2026-08-30 19:03:30 | 47.46232 | -116.97696 | 247° | 29km/h | 21268m | -11.0m/s | -51.5°C | 0% | 0hPa | 0V | 00:00:00 | 00:00:00 | 00:00:00 | |
| WB7NNF | 2026-08-30 19:03:09 | 47.46231 | -116.97513 | 275° | 18km/h | 21494m | -11.3m/s | -52.1°C | 0% | 0hPa | 0V | 00:00:00 | 00:00:00 | 00:00:00 | |
| WB7NNF | 2026-08-30 19:02:49 | 47.46172 | -116.97424 | 360° | 13km/h | 21736m | -11.6m/s | -51.6°C | 0% | 0hPa | 0V | 00:00:00 | 00:00:00 | 00:00:00 | |
| WB7NNF | 2026-08-30 19:02:28 | 47.46163 | -116.97381 | 257° | 20km/h | 21981m | -11.3m/s | -52.7°C | 0% | 0hPa | 0V | 00:00:00 | 00:00:00 | 00:00:00 | |
| WB7NNF | 2026-08-30 19:02:06 | 47.46105 | -116.97284 | 292° | 15km/h | 22241m | -11.1m/s | -51.4°C | 0% | 0hPa | 0V | 00:00:00 | 00:00:00 | 00:00:00 | |
| WB7NNF | 2026-08-30 19:01:45 | 47.46013 | -116.97176 | 329° | 26km/h | 22484m | -11.9m/s | -51.8°C | 0% | 0hPa | 0V | 00:00:00 | 00:00:00 | 00:00:00 | |
| WB7NNF | 2026-08-30 19:01:25 | 47.45853 | -116.97152 | 15° | 24km/h | 22741m | -12.6m/s | -51.0°C | 0% | 0hPa | 0V | 00:00:00 | 00:00:00 | 00:00:00 | |
| WB7NNF | 2026-08-30 19:01:04 | 47.45745 | -116.97127 | 358° | 27km/h | 22991m | -12.0m/s | -50.2°C | 0% | 0hPa | 0V | 00:00:00 | 00:00:00 | 00:00:00 | |
| WB7NNF | 2026-08-30 19:00:44 | 47.45578 | -116.97130 | 14° | 24km/h | 23262m | -12.6m/s | -49.4°C | 0% | 0hPa | 0V | 00:00:00 | 00:00:00 | 00:00:00 | |
| WB7NNF | 2026-08-30 19:00:23 | 47.45410 | -116.97124 | 31° | 20km/h | 23539m | -13.2m/s | -48.4°C | 0% | 0hPa | 0V | 00:00:00 | 00:00:00 | 00:00:00 | |
| WB7NNF | 2026-08-30 18:59:42 | 47.45238 | -116.97120 | 282° | 24km/h | 24097m | -14.1m/s | -48.6°C | 0% | 0hPa | 0V | 00:00:00 | 00:00:00 | 00:00:00 | |
| WB7NNF | 2026-08-30 18:59:21 | 47.45152 | -116.96902 | 314° | 27km/h | 24383m | -14.4m/s | -49.9°C | 0% | 0hPa | 0V | 00:00:00 | 00:00:00 | 00:00:00 | |
| WB7NNF | 2026-08-30 18:59:01 | 47.45056 | -116.96763 | 287° | 29km/h | 24689m | -16.7m/s | -51.0°C | 0% | 0hPa | 0V | 00:00:00 | 00:00:00 | 00:00:00 | |
| WB7NNF | 2026-08-30 18:58:40 | 47.44957 | -116.96721 | 35° | 22km/h | 24992m | -15.1m/s | -50.9°C | 0% | 0hPa | 0V | 00:00:00 | 00:00:00 | 00:00:00 | |
| WB7NNF | 2026-08-30 18:58:20 | 47.44864 | -116.96764 | 8° | 26km/h | 25316m | -16.2m/s | -49.0°C | 0% | 0hPa | 0V | 00:00:00 | 00:00:00 | 00:00:00 | |
| WB7NNF | 2026-08-30 18:57:59 | 47.44864 | -116.96969 | 138° | 20km/h | 25635m | -15.3m/s | -48.5°C | 0% | 0hPa | 0V | 00:00:00 | 00:00:00 | 00:00:00 | |
| WB7NNF | 2026-08-30 18:57:39 | 47.44903 | -116.97091 | 98° | 24km/h | 25975m | -16.7m/s | -48.0°C | 0% | 0hPa | 0V | 00:00:00 | 00:00:00 | 00:00:00 | |
| WB7NNF | 2026-08-30 18:57:18 | 47.44802 | -116.97165 | 31° | 37km/h | 26303m | -16.2m/s | -45.9°C | 0% | 0hPa | 0V | 00:00:00 | 00:00:00 | 00:00:00 | |
| WB7NNF | 2026-08-30 18:56:58 | 47.44792 | -116.97292 | 113° | 13km/h | 26659m | -16.8m/s | -45.1°C | 0% | 0hPa | 0V | 00:00:00 | 00:00:00 | 00:00:00 | |
| WB7NNF | 2026-08-30 18:56:37 | 47.44847 | -116.97350 | 205° | 20km/h | 27003m | -17.1m/s | -45.1°C | 0% | 0hPa | 0V | 00:00:00 | 00:00:00 | 00:00:00 | |
| WB7NNF | 2026-08-30 18:56:17 | 47.44867 | -116.97297 | 130° | 11km/h | 27394m | -20.4m/s | -45.5°C | 0% | 0hPa | 0V | 00:00:00 | 00:00:00 | 00:00:00 | |
| WB7NNF | 2026-08-30 18:55:56 | 47.44831 | -116.97273 | 340° | 29km/h | 27803m | -20.9m/s | -44.5°C | 0% | 0hPa | 0V | 00:00:00 | 00:00:00 | 00:00:00 | |
| WB7NNF | 2026-08-30 18:55:34 | 47.44788 | -116.97298 | 127° | 22km/h | 28228m | -20.7m/s | -45.2°C | 0% | 0hPa | 0V | 00:00:00 | 00:00:00 | 00:00:00 | |
| WB7NNF | 2026-08-30 18:55:14 | 47.44774 | -116.97322 | 262° | 22km/h | 28687m | -20.4m/s | -44.9°C | 0% | 0hPa | 0V | 00:00:00 | 00:00:00 | 00:00:00 | |
| WB7NNF | 2026-08-30 18:54:51 | 47.44858 | -116.97354 | 192° | 31km/h | 29138m | -21.0m/s | -42.9°C | 0% | 0hPa | 0V | 00:00:00 | 00:00:00 | 00:00:00 | |
| WB7NNF | 2026-08-30 18:54:31 | 47.44920 | -116.97258 | 285° | 13km/h | 29572m | -20.5m/s | -41.8°C | 0% | 0hPa | 0V | 00:00:00 | 00:00:00 | 00:00:00 | |
| WB7NNF | 2026-08-30 18:54:10 | 47.44906 | -116.97230 | 39° | 20km/h | 30039m | -27.3m/s | -41.3°C | 0% | 0hPa | 0V | 00:00:00 | 00:00:00 | 00:00:00 | |
| WB7NNF | 2026-08-30 18:53:49 | 47.44928 | -116.97202 | 185° | 42km/h | 30517m | -28.3m/s | -41.4°C | 0% | 0hPa | 0V | 00:00:00 | 00:00:00 | 00:00:00 | |
| WB7NNF | 2026-08-30 18:53:29 | 47.44913 | -116.97236 | 41° | 27km/h | 31043m | -25.2m/s | -42.2°C | 0% | 0hPa | 0V | 00:00:00 | 00:00:00 | 00:00:00 | |
| WB7NNF | 2026-08-30 18:53:08 | 47.44783 | -116.97409 | 116° | 9km/h | 31563m | -26.3m/s | -41.4°C | 0% | 0hPa | 0V | 00:00:00 | 00:00:00 | 00:00:00 | |
| WB7NNF | 2026-08-30 18:52:48 | 47.44782 | -116.97503 | 69° | 16km/h | 32128m | -24.5m/s | -39.5°C | 0% | 0hPa | 0V | 00:00:00 | 00:00:00 | 00:00:00 | |
| WB7NNF | 2026-08-30 18:52:27 | 47.44699 | -116.97503 | 318° | 40km/h | 32699m | -27.5m/s | -36.9°C | 0% | 0hPa | 0V | 00:00:00 | 00:00:00 | 00:00:00 | |
| WB7NNF | 2026-08-30 18:52:07 | 47.44616 | -116.97453 | 21° | 47km/h | 33299m | -26.0m/s | -36.4°C | 0% | 0hPa | 0V | 00:00:00 | 00:00:00 | 00:00:00 | |
| WB7NNF | 2026-08-30 18:51:46 | 47.44607 | -116.97579 | 142° | 64km/h | 33900m | -29.7m/s | -36.5°C | 0% | 0hPa | 0V | 00:00:00 | 00:00:00 | 00:00:00 | |
| WB7NNF | 2026-08-30 18:51:25 | 47.44675 | -116.97754 | 77° | 37km/h | 34547m | -32.0m/s | -37.3°C | 0% | 0hPa | 0V | 00:00:00 | 00:00:00 | 00:00:00 | |
| WB7NNF | 2026-08-30 18:51:05 | 47.44690 | -116.97932 | 128° | 20km/h | 34703m | 9.2m/s | -37.5°C | 0% | 0hPa | 0V | 00:00:00 | 00:00:00 | 00:00:00 | |
| WB7NNF | 2026-08-30 18:50:44 | 47.44784 | -116.98068 | 183° | 46km/h | 34568m | 2.4m/s | -37.2°C | 0% | 0hPa | 0V | 00:00:00 | 00:00:00 | 00:00:00 | |
| WB7NNF | 2026-08-30 18:50:24 | 47.44885 | -116.98186 | 90° | 46km/h | 34428m | 9.4m/s | -36.8°C | 0% | 0hPa | 0V | 00:00:00 | 00:00:00 | 00:00:00 | |
| WB7NNF | 2026-08-30 18:50:03 | 47.44927 | -116.98245 | 83° | 33km/h | 34292m | 3.7m/s | -37.1°C | 0% | 0hPa | 0V | 00:00:00 | 00:00:00 | 00:00:00 | |
| WB7NNF | 2026-08-30 18:49:41 | 47.45022 | -116.98340 | 125° | 24km/h | 34142m | 9.4m/s | -36.9°C | 0% | 0hPa | 0V | 00:00:00 | 00:00:00 | 00:00:00 | |
| WB7NNF | 2026-08-30 18:49:20 | 47.45098 | -116.98582 | 91° | 49km/h | 33991m | 2.6m/s | -37.3°C | 0% | 0hPa | 0V | 00:00:00 | 00:00:00 | 00:00:00 | |
| WB7NNF | 2026-08-30 18:49:00 | 47.45150 | -116.98839 | 163° | 46km/h | 33838m | 7.8m/s | -36.6°C | 0% | 0hPa | 0V | 00:00:00 | 00:00:00 | 00:00:00 | |
| WB7NNF | 2026-08-30 18:48:39 | 47.45163 | -116.99097 | 67° | 44km/h | 33701m | 10.1m/s | -36.8°C | 0% | 0hPa | 0V | 00:00:00 | 00:00:00 | 00:00:00 | |
| WB7NNF | 2026-08-30 18:48:19 | 47.45101 | -116.99284 | 83° | 51km/h | 33551m | 8.5m/s | -37.0°C | 0% | 0hPa | 0V | 00:00:00 | 00:00:00 | 00:00:00 | |
| WB7NNF | 2026-08-30 18:47:58 | 47.45042 | -116.99311 | 323° | 49km/h | 33406m | 8.7m/s | -36.5°C | 0% | 0hPa | 0V | 00:00:00 | 00:00:00 | 00:00:00 | |
| WB7NNF | 2026-08-30 18:47:36 | 47.45002 | -116.99200 | 162° | 27km/h | 33260m | 4.4m/s | -36.2°C | 0% | 0hPa | 0V | 00:00:00 | 00:00:00 | 00:00:00 | |
| WB7NNF | 2026-08-30 18:47:12 | 47.44972 | -116.99088 | 318° | 11km/h | 33111m | 9.8m/s | -37.3°C | 0% | 0hPa | 0V | 00:00:00 | 00:00:00 | 00:00:00 | |
| WB7NNF | 2026-08-30 18:46:51 | 47.44899 | -116.99046 | 11° | 13km/h | 32975m | 5.5m/s | -37.7°C | 0% | 0hPa | 0V | 00:00:00 | 00:00:00 | 00:00:00 | |
| WB7NNF | 2026-08-30 18:46:31 | 47.44782 | -116.99023 | 36° | 46km/h | 32836m | 9.2m/s | -38.2°C | 0% | 0hPa | 0V | 00:00:00 | 00:00:00 | 00:00:00 | |
| WB7NNF | 2026-08-30 18:46:10 | 47.44720 | -116.98963 | 208° | 31km/h | 32696m | -5.6m/s | -39.0°C | 0% | 0hPa | 0V | 00:00:00 | 00:00:00 | 00:00:00 | |
| WB7NNF | 2026-08-30 18:45:49 | 47.44670 | -116.98885 | 351° | 51km/h | 32566m | 5.4m/s | -40.2°C | 0% | 0hPa | 0V | 00:00:00 | 00:00:00 | 00:00:00 | |
| WB7NNF | 2026-08-30 18:45:29 | 47.44592 | -116.98914 | 173° | 18km/h | 32430m | 7.7m/s | -40.8°C | 0% | 0hPa | 0V | 00:00:00 | 00:00:00 | 00:00:00 | |
| WB7NNF | 2026-08-30 18:45:07 | 47.44512 | -116.99065 | 63° | 42km/h | 32293m | 2.9m/s | -40.9°C | 0% | 0hPa | 0V | 00:00:00 | 00:00:00 | 00:00:00 | |
| WB7NNF | 2026-08-30 18:44:46 | 47.44447 | -116.99184 | 42° | 13km/h | 32146m | 4.5m/s | -41.2°C | 0% | 0hPa | 0V | 00:00:00 | 00:00:00 | 00:00:00 | |
| WB7NNF | 2026-08-30 18:44:24 | 47.44424 | -116.99249 | 151° | 18km/h | 31999m | 3.4m/s | -41.8°C | 0% | 0hPa | 0V | 00:00:00 | 00:00:00 | 00:00:00 | |
| WB7NNF | 2026-08-30 18:44:03 | 47.44469 | -116.99260 | 257° | 5km/h | 31852m | 5.8m/s | -42.1°C | 0% | 0hPa | 0V | 00:00:00 | 00:00:00 | 00:00:00 | |
| WB7NNF | 2026-08-30 18:43:43 | 47.44570 | -116.99274 | 153° | 57km/h | 31712m | 4.0m/s | -41.8°C | 0% | 0hPa | 0V | 00:00:00 | 00:00:00 | 00:00:00 | |
| WB7NNF | 2026-08-30 18:43:22 | 47.44619 | -116.99383 | 338° | 35km/h | 31566m | 3.3m/s | -42.1°C | 0% | 0hPa | 0V | 00:00:00 | 00:00:00 | 00:00:00 | |
| WB7NNF | 2026-08-30 18:43:01 | 47.44570 | -116.99549 | 86° | 38km/h | 31426m | 8.7m/s | -41.0°C | 0% | 0hPa | 0V | 00:00:00 | 00:00:00 | 00:00:00 | |
| WB7NNF | 2026-08-30 18:42:41 | 47.44456 | -116.99728 | 12° | 75km/h | 31279m | 8.2m/s | -41.8°C | 0% | 0hPa | 0V | 00:00:00 | 00:00:00 | 00:00:00 | |
| WB7NNF | 2026-08-30 18:42:19 | 47.44230 | -116.99867 | 22° | 47km/h | 31124m | 7.4m/s | -42.3°C | 0% | 0hPa | 0V | 00:00:00 | 00:00:00 | 00:00:00 | |
| WB7NNF | 2026-08-30 18:41:58 | 47.44040 | -116.99943 | 28° | 40km/h | 30982m | -3.4m/s | 0°C | 0% | 0hPa | 0V | 00:00:00 | 00:00:00 | 00:00:00 | |
| WB7NNF | 2026-08-30 18:41:30 | 47.43982 | -116.99969 | 202° | 33km/h | 30796m | 3.3m/s | -41.5°C | 0% | 0hPa | 0V | 00:00:00 | 00:00:00 | 00:00:00 | |
| WB7NNF | 2026-08-30 18:41:10 | 47.44020 | -116.99959 | 130° | 35km/h | 30651m | 10.6m/s | -41.2°C | 0% | 0hPa | 0V | 00:00:00 | 00:00:00 | 00:00:00 | |
| WB7NNF | 2026-08-30 18:40:49 | 47.44113 | -116.99921 | 84° | 38km/h | 30514m | 6.1m/s | -42.0°C | 0% | 0hPa | 0V | 00:00:00 | 00:00:00 | 00:00:00 | |
| WB7NNF | 2026-08-30 18:40:28 | 47.44104 | -116.99890 | 357° | 29km/h | 30391m | 6.4m/s | -42.5°C | 0% | 0hPa | 0V | 00:00:00 | 00:00:00 | 00:00:00 | |
| WB7NNF | 2026-08-30 18:40:08 | 47.44129 | -116.99839 | 284° | 13km/h | 30243m | 9.6m/s | -42.4°C | 0% | 0hPa | 0V | 00:00:00 | 00:00:00 | 00:00:00 | |
| WB7NNF | 2026-08-30 18:39:47 | 47.44184 | -116.99819 | 265° | 15km/h | 30104m | 6.0m/s | -42.0°C | 0% | 0hPa | 0V | 00:00:00 | 00:00:00 | 00:00:00 | |
| WB7NNF | 2026-08-30 18:39:27 | 47.44179 | -116.99780 | 134° | 29km/h | 29962m | 11.0m/s | -42.3°C | 0% | 0hPa | 0V | 00:00:00 | 00:00:00 | 00:00:00 | |
| WB7NNF | 2026-08-30 18:39:06 | 47.44231 | -116.99760 | 11° | 53km/h | 29824m | 8.1m/s | -42.8°C | 0% | 0hPa | 0V | 00:00:00 | 00:00:00 | 00:00:00 | |
| WB7NNF | 2026-08-30 18:38:44 | 47.44196 | -116.99756 | 140° | 35km/h | 29681m | 1.6m/s | -43.4°C | 0% | 0hPa | 0V | 00:00:00 | 00:00:00 | 00:00:00 | |
| WB7NNF | 2026-08-30 18:38:21 | 47.44144 | -116.99692 | 11° | 49km/h | 29533m | 3.2m/s | -44.8°C | 0% | 0hPa | 0V | 00:00:00 | 00:00:00 | 00:00:00 | |
| WB7NNF | 2026-08-30 18:38:01 | 47.44188 | -116.99595 | 224° | 33km/h | 29392m | 5.3m/s | -45.2°C | 0% | 0hPa | 0V | 00:00:00 | 00:00:00 | 00:00:00 | |
| WB7NNF | 2026-08-30 18:37:39 | 47.44333 | -116.99586 | 223° | 46km/h | 29251m | 15.7m/s | -45.4°C | 0% | 0hPa | 0V | 00:00:00 | 00:00:00 | 00:00:00 | |
| WB7NNF | 2026-08-30 18:37:18 | 47.44464 | -116.99640 | 261° | 18km/h | 29105m | -0.5m/s | -45.9°C | 0% | 0hPa | 0V | 00:00:00 | 00:00:00 | 00:00:00 | |
| WB7NNF | 2026-08-30 18:36:36 | 47.44512 | -116.99730 | 320° | 29km/h | 28843m | 2.5m/s | -46.6°C | 0% | 0hPa | 0V | 00:00:00 | 00:00:00 | 00:00:00 | |
| WB7NNF | 2026-08-30 18:36:15 | 47.44477 | -116.99682 | 336° | 40km/h | 28715m | 1.6m/s | -46.7°C | 0% | 0hPa | 0V | 00:00:00 | 00:00:00 | 00:00:00 | |
| WB7NNF | 2026-08-30 18:35:54 | 47.44452 | -116.99632 | 178° | 35km/h | 28562m | 11.1m/s | -46.8°C | 0% | 0hPa | 0V | 00:00:00 | 00:00:00 | 00:00:00 | |
| WB7NNF | 2026-08-30 18:35:33 | 47.44470 | -116.99625 | 74° | 7km/h | 28432m | 3.5m/s | -46.3°C | 0% | 0hPa | 0V | 00:00:00 | 00:00:00 | 00:00:00 | |
| WB7NNF | 2026-08-30 18:35:13 | 47.44484 | -116.99732 | 74° | 58km/h | 28298m | 8.0m/s | -46.6°C | 0% | 0hPa | 0V | 00:00:00 | 00:00:00 | 00:00:00 | |
| WB7NNF | 2026-08-30 18:34:52 | 47.44430 | -116.99814 | 31° | 24km/h | 28164m | 9.9m/s | -46.2°C | 0% | 0hPa | 0V | 00:00:00 | 00:00:00 | 00:00:00 | |
| WB7NNF | 2026-08-30 18:34:32 | 47.44357 | -116.99812 | 337° | 46km/h | 28029m | 12.6m/s | -45.8°C | 0% | 0hPa | 0V | 00:00:00 | 00:00:00 | 00:00:00 | |
| WB7NNF | 2026-08-30 18:34:11 | 47.44301 | -116.99712 | 61° | 16km/h | 27903m | 8.5m/s | -45.8°C | 0% | 0hPa | 0V | 00:00:00 | 00:00:00 | 00:00:00 | |
| WB7NNF | 2026-08-30 18:33:47 | 47.44236 | -116.99575 | 124° | 35km/h | 27737m | 7.9m/s | -45.9°C | 0% | 0hPa | 0V | 00:00:00 | 00:00:00 | 00:00:00 | |
| WB7NNF | 2026-08-30 18:33:25 | 47.44212 | -116.99522 | 324° | 26km/h | 27591m | 8.8m/s | -45.7°C | 0% | 0hPa | 0V | 00:00:00 | 00:00:00 | 00:00:00 | |
| WB7NNF | 2026-08-30 18:33:05 | 47.44194 | -116.99525 | 263° | 33km/h | 27453m | 9.8m/s | -46.1°C | 0% | 0hPa | 0V | 00:00:00 | 00:00:00 | 00:00:00 | |
| WB7NNF | 2026-08-30 18:32:44 | 47.44171 | -116.99505 | 110° | 44km/h | 27326m | 7.8m/s | -46.2°C | 0% | 0hPa | 0V | 00:00:00 | 00:00:00 | 00:00:00 | |
| WB7NNF | 2026-08-30 18:32:23 | 47.44183 | -116.99465 | 109° | 33km/h | 27203m | 7.8m/s | -46.4°C | 0% | 0hPa | 0V | 00:00:00 | 00:00:00 | 00:00:00 | |
| WB7NNF | 2026-08-30 18:32:03 | 47.44223 | -116.99460 | 34° | 15km/h | 27077m | 7.1m/s | -46.2°C | 0% | 0hPa | 0V | 00:00:00 | 00:00:00 | 00:00:00 | |
| WB7NNF | 2026-08-30 18:31:42 | 47.44276 | -116.99532 | 230° | 40km/h | 26938m | 9.5m/s | -46.8°C | 0% | 0hPa | 0V | 00:00:00 | 00:00:00 | 00:00:00 | |
| WB7NNF | 2026-08-30 18:31:21 | 47.44301 | -116.99619 | 220° | 38km/h | 26808m | 7.2m/s | -47.1°C | 0% | 0hPa | 0V | 00:00:00 | 00:00:00 | 00:00:00 | |
| WB7NNF | 2026-08-30 18:31:01 | 47.44334 | -116.99677 | 152° | 26km/h | 26684m | 6.3m/s | -46.9°C | 0% | 0hPa | 0V | 00:00:00 | 00:00:00 | 00:00:00 | |
| WB7NNF | 2026-08-30 18:30:39 | 47.44355 | -116.99783 | 69° | 27km/h | 26555m | 14.1m/s | -47.5°C | 0% | 0hPa | 0V | 00:00:00 | 00:00:00 | 00:00:00 | |
| WB7NNF | 2026-08-30 18:30:18 | 47.44301 | -116.99940 | 119° | 22km/h | 26423m | 1.8m/s | -48.1°C | 0% | 0hPa | 0V | 00:00:00 | 00:00:00 | 00:00:00 | |
| WB7NNF | 2026-08-30 18:29:57 | 47.44173 | -117.00074 | 65° | 22km/h | 26298m | -1.2m/s | -48.4°C | 0% | 0hPa | 0V | 00:00:00 | 00:00:00 | 00:00:00 | |
| WB7NNF | 2026-08-30 18:29:37 | 47.44030 | -117.00159 | 7° | 55km/h | 26164m | 8.1m/s | -49.0°C | 0% | 0hPa | 0V | 00:00:00 | 00:00:00 | 00:00:00 | |
| WB7NNF | 2026-08-30 18:29:16 | 47.43964 | -117.00151 | 246° | 44km/h | 26041m | 0.8m/s | -49.5°C | 0% | 0hPa | 0V | 00:00:00 | 00:00:00 | 00:00:00 | |
| WB7NNF | 2026-08-30 18:28:56 | 47.43997 | -117.00192 | 131° | 22km/h | 25905m | 7.3m/s | -49.8°C | 0% | 0hPa | 0V | 00:00:00 | 00:00:00 | 00:00:00 | |
| WB7NNF | 2026-08-30 18:28:35 | 47.43997 | -117.00303 | 119° | 60km/h | 25781m | -1.5m/s | -49.2°C | 0% | 0hPa | 0V | 00:00:00 | 00:00:00 | 00:00:00 | |
| WB7NNF | 2026-08-30 18:28:15 | 47.43997 | -117.00462 | 37° | 35km/h | 25654m | 11.7m/s | -49.1°C | 0% | 0hPa | 0V | 00:00:00 | 00:00:00 | 00:00:00 | |
| WB7NNF | 2026-08-30 18:27:54 | 47.43995 | -117.00685 | 147° | 18km/h | 25512m | 8.8m/s | -49.3°C | 0% | 0hPa | 0V | 00:00:00 | 00:00:00 | 00:00:00 | |
| WB7NNF | 2026-08-30 18:27:33 | 47.43940 | -117.00860 | 24° | 68km/h | 25380m | 0.0m/s | -49.5°C | 0% | 0hPa | 0V | 00:00:00 | 00:00:00 | 00:00:00 | |
| WB7NNF | 2026-08-30 18:27:12 | 47.43859 | -117.00964 | 35° | 49km/h | 25265m | 7.4m/s | -50.6°C | 0% | 0hPa | 0V | 00:00:00 | 00:00:00 | 00:00:00 | |
| WB7NNF | 2026-08-30 18:26:51 | 47.43769 | -117.01020 | 294° | 27km/h | 25128m | 2.2m/s | -50.5°C | 0% | 0hPa | 0V | 00:00:00 | 00:00:00 | 00:00:00 | |
| WB7NNF | 2026-08-30 18:26:30 | 47.43634 | -117.00931 | 31° | 49km/h | 25002m | 4.4m/s | -50.6°C | 0% | 0hPa | 0V | 00:00:00 | 00:00:00 | 00:00:00 | |
| WB7NNF | 2026-08-30 18:26:10 | 47.43505 | -117.00827 | 268° | 24km/h | 24877m | 9.9m/s | -50.8°C | 0% | 0hPa | 0V | 00:00:00 | 00:00:00 | 00:00:00 | |
| WB7NNF | 2026-08-30 18:25:49 | 47.43379 | -117.00725 | 347° | 58km/h | 24759m | 0.6m/s | -50.8°C | 0% | 0hPa | 0V | 00:00:00 | 00:00:00 | 00:00:00 | |
| WB7NNF | 2026-08-30 18:25:29 | 47.43297 | -117.00671 | 241° | 38km/h | 24637m | 1.5m/s | -50.3°C | 0% | 0hPa | 0V | 00:00:00 | 00:00:00 | 00:00:00 | |
| WB7NNF | 2026-08-30 18:25:08 | 47.43231 | -117.00600 | 329° | 29km/h | 24519m | 9.3m/s | -50.7°C | 0% | 0hPa | 0V | 00:00:00 | 00:00:00 | 00:00:00 | |
| WB7NNF | 2026-08-30 18:24:48 | 47.43106 | -117.00502 | 84° | 16km/h | 24395m | 6.4m/s | -50.6°C | 0% | 0hPa | 0V | 00:00:00 | 00:00:00 | 00:00:00 | |
| WB7NNF | 2026-08-30 18:24:27 | 47.43038 | -117.00310 | 243° | 33km/h | 24282m | 1.3m/s | -50.7°C | 0% | 0hPa | 0V | 00:00:00 | 00:00:00 | 00:00:00 | |
| WB7NNF | 2026-08-30 18:24:07 | 47.42983 | -117.00143 | 347° | 47km/h | 24149m | 9.3m/s | -50.4°C | 0% | 0hPa | 0V | 00:00:00 | 00:00:00 | 00:00:00 | |
| WB7NNF | 2026-08-30 18:23:47 | 47.42932 | -117.00068 | 59° | 26km/h | 24029m | 0.2m/s | -49.7°C | 0% | 0hPa | 0V | 00:00:00 | 00:00:00 | 00:00:00 | |
| WB7NNF | 2026-08-30 18:23:26 | 47.42871 | -117.00056 | 158° | 24km/h | 23904m | 9.6m/s | -49.5°C | 0% | 0hPa | 0V | 00:00:00 | 00:00:00 | 00:00:00 | |
| WB7NNF | 2026-08-30 18:23:05 | 47.42793 | -117.00079 | 308° | 26km/h | 23791m | 5.6m/s | -50.1°C | 0% | 0hPa | 0V | 00:00:00 | 00:00:00 | 00:00:00 | |
| WB7NNF | 2026-08-30 18:22:43 | 47.42682 | -117.00089 | 285° | 44km/h | 23660m | -0.3m/s | -50.5°C | 0% | 0hPa | 0V | 00:00:00 | 00:00:00 | 00:00:00 | |
| WB7NNF | 2026-08-30 18:22:22 | 47.42545 | -117.00034 | 358° | 47km/h | 23541m | 6.3m/s | -50.4°C | 0% | 0hPa | 0V | 00:00:00 | 00:00:00 | 00:00:00 | |
| WB7NNF | 2026-08-30 18:21:41 | 47.42250 | -116.99854 | 43° | 44km/h | 23295m | 9.5m/s | -50.9°C | 0% | 0hPa | 0V | 00:00:00 | 00:00:00 | 00:00:00 | |
| WB7NNF | 2026-08-30 18:21:19 | 47.42108 | -116.99805 | 1° | 57km/h | 23168m | 3.0m/s | -51.3°C | 0% | 0hPa | 0V | 00:00:00 | 00:00:00 | 00:00:00 | |
| WB7NNF | 2026-08-30 18:20:58 | 47.42005 | -116.99709 | 229° | 40km/h | 23044m | 3.5m/s | -51.7°C | 0% | 0hPa | 0V | 00:00:00 | 00:00:00 | 00:00:00 | |
| WB7NNF | 2026-08-30 18:20:38 | 47.41903 | -116.99556 | 13° | 47km/h | 22939m | 6.7m/s | -51.7°C | 0% | 0hPa | 0V | 00:00:00 | 00:00:00 | 00:00:00 | |
| WB7NNF | 2026-08-30 18:20:17 | 47.41824 | -116.99505 | 283° | 5km/h | 22829m | 3.7m/s | -51.9°C | 0% | 0hPa | 0V | 00:00:00 | 00:00:00 | 00:00:00 | |
| WB7NNF | 2026-08-30 18:19:57 | 47.41705 | -116.99465 | 27° | 44km/h | 22692m | 4.9m/s | -52.4°C | 0% | 0hPa | 0V | 00:00:00 | 00:00:00 | 00:00:00 | |
| WB7NNF | 2026-08-30 18:19:36 | 47.41572 | -116.99397 | 315° | 53km/h | 22575m | 2.8m/s | -52.7°C | 0% | 0hPa | 0V | 00:00:00 | 00:00:00 | 00:00:00 | |
| WB7NNF | 2026-08-30 18:18:53 | 47.41389 | -116.99088 | 305° | 22km/h | 22315m | 7.8m/s | -51.7°C | 0% | 0hPa | 0V | 00:00:00 | 00:00:00 | 00:00:00 | |
| WB7NNF | 2026-08-30 18:18:32 | 47.41373 | -116.99005 | 289° | 4km/h | 22194m | 4.1m/s | -52.2°C | 0% | 0hPa | 0V | 00:00:00 | 00:00:00 | 00:00:00 | |
| WB7NNF | 2026-08-30 18:18:12 | 47.41311 | -116.98912 | 292° | 51km/h | 22059m | 2.4m/s | -52.6°C | 0% | 0hPa | 0V | 00:00:00 | 00:00:00 | 00:00:00 | |
| WB7NNF | 2026-08-30 18:17:51 | 47.41326 | -116.98807 | 165° | 38km/h | 21944m | 1.3m/s | -53.0°C | 0% | 0hPa | 0V | 00:00:00 | 00:00:00 | 00:00:00 | |
| WB7NNF | 2026-08-30 18:17:29 | 47.41387 | -116.98735 | 159° | 18km/h | 21829m | 5.6m/s | -52.5°C | 0% | 0hPa | 0V | 00:00:00 | 00:00:00 | 00:00:00 | |
| WB7NNF | 2026-08-30 18:16:48 | 47.41455 | -116.98683 | 227° | 7km/h | 21594m | 7.7m/s | -51.4°C | 0% | 0hPa | 0V | 00:00:00 | 00:00:00 | 00:00:00 | |
| WB7NNF | 2026-08-30 18:16:26 | 47.41436 | -116.98589 | 267° | 33km/h | 21474m | 0.5m/s | -51.6°C | 0% | 0hPa | 0V | 00:00:00 | 00:00:00 | 00:00:00 | |
| WB7NNF | 2026-08-30 18:16:05 | 47.41404 | -116.98474 | 34° | 15km/h | 21362m | 4.4m/s | -51.9°C | 0% | 0hPa | 0V | 00:00:00 | 00:00:00 | 00:00:00 | |
| WB7NNF | 2026-08-30 18:15:43 | 47.41444 | -116.98330 | 220° | 40km/h | 21242m | 3.4m/s | -51.8°C | 0% | 0hPa | 0V | 00:00:00 | 00:00:00 | 00:00:00 | |
| WB7NNF | 2026-08-30 18:15:23 | 47.41465 | -116.98266 | 51° | 40km/h | 21125m | 3.8m/s | -52.7°C | 0% | 0hPa | 0V | 00:00:00 | 00:00:00 | 00:00:00 | |
| WB7NNF | 2026-08-30 18:14:41 | 47.41409 | -116.98376 | 341° | 20km/h | 20890m | 9.6m/s | -53.1°C | 0% | 0hPa | 0V | 00:00:00 | 00:00:00 | 00:00:00 | |
| WB7NNF | 2026-08-30 18:14:20 | 47.41334 | -116.98449 | 91° | 27km/h | 20783m | 0.9m/s | -53.2°C | 0% | 0hPa | 0V | 00:00:00 | 00:00:00 | 00:00:00 | |
| WB7NNF | 2026-08-30 18:14:00 | 47.41186 | -116.98548 | 338° | 35km/h | 20661m | 6.0m/s | -53.6°C | 0% | 0hPa | 0V | 00:00:00 | 00:00:00 | 00:00:00 | |
| WB7NNF | 2026-08-30 18:13:39 | 47.41065 | -116.98574 | 258° | 15km/h | 20545m | 0.2m/s | -53.0°C | 0% | 0hPa | 0V | 00:00:00 | 00:00:00 | 00:00:00 | |
| WB7NNF | 2026-08-30 18:13:19 | 47.40976 | -116.98514 | 23° | 16km/h | 20430m | 1.8m/s | -52.6°C | 0% | 0hPa | 0V | 00:00:00 | 00:00:00 | 00:00:00 | |
| WB7NNF | 2026-08-30 18:12:58 | 47.40928 | -116.98414 | 34° | 26km/h | 20310m | 8.9m/s | -52.6°C | 0% | 0hPa | 0V | 00:00:00 | 00:00:00 | 00:00:00 | |
| WB7NNF | 2026-08-30 18:12:37 | 47.40907 | -116.98389 | 282° | 38km/h | 20192m | 10.1m/s | -53.0°C | 0% | 0hPa | 0V | 00:00:00 | 00:00:00 | 00:00:00 | |
| WB7NNF | 2026-08-30 18:12:17 | 47.40928 | -116.98343 | 124° | 15km/h | 20079m | 8.2m/s | -52.9°C | 0% | 0hPa | 0V | 00:00:00 | 00:00:00 | 00:00:00 | |
| WB7NNF | 2026-08-30 18:11:55 | 47.40979 | -116.98310 | 292° | 24km/h | 19971m | 8.4m/s | -52.6°C | 0% | 0hPa | 0V | 00:00:00 | 00:00:00 | 00:00:00 | |
| WB7NNF | 2026-08-30 18:11:34 | 47.41042 | -116.98338 | 126° | 58km/h | 19853m | 7.0m/s | -53.1°C | 0% | 0hPa | 0V | 00:00:00 | 00:00:00 | 00:00:00 | |
| WB7NNF | 2026-08-30 18:11:14 | 47.41072 | -116.98489 | 188° | 26km/h | 19746m | 0.3m/s | -53.3°C | 0% | 0hPa | 0V | 00:00:00 | 00:00:00 | 00:00:00 | |
| WB7NNF | 2026-08-30 18:10:53 | 47.41063 | -116.98688 | 98° | 42km/h | 19641m | 5.3m/s | -54.0°C | 0% | 0hPa | 0V | 00:00:00 | 00:00:00 | 00:00:00 | |
| WB7NNF | 2026-08-30 18:10:33 | 47.41029 | -116.98870 | 68° | 46km/h | 19529m | 8.2m/s | -53.6°C | 0% | 0hPa | 0V | 00:00:00 | 00:00:00 | 00:00:00 | |
| WB7NNF | 2026-08-30 18:10:12 | 47.40975 | -116.98991 | 28° | 11km/h | 19428m | 6.0m/s | -54.2°C | 0% | 0hPa | 0V | 00:00:00 | 00:00:00 | 00:00:00 | |
| WB7NNF | 2026-08-30 18:09:52 | 47.40919 | -116.99017 | 35° | 40km/h | 19315m | 0.4m/s | -54.3°C | 0% | 0hPa | 0V | 00:00:00 | 00:00:00 | 00:00:00 | |
| WB7NNF | 2026-08-30 18:09:31 | 47.40878 | -116.99057 | 164° | 24km/h | 19210m | 7.4m/s | -54.2°C | 0% | 0hPa | 0V | 00:00:00 | 00:00:00 | 00:00:00 | |
| WB7NNF | 2026-08-30 18:09:11 | 47.40855 | -116.99141 | 324° | 26km/h | 19100m | 6.1m/s | -53.8°C | 0% | 0hPa | 0V | 00:00:00 | 00:00:00 | 00:00:00 | |
| WB7NNF | 2026-08-30 18:08:50 | 47.40809 | -116.99256 | 66° | 51km/h | 18997m | 8.5m/s | -54.1°C | 0% | 0hPa | 0V | 00:00:00 | 00:00:00 | 00:00:00 | |
| WB7NNF | 2026-08-30 18:08:30 | 47.40697 | -116.99403 | 72° | 24km/h | 18882m | 2.4m/s | -54.0°C | 0% | 0hPa | 0V | 00:00:00 | 00:00:00 | 00:00:00 | |
| WB7NNF | 2026-08-30 18:08:09 | 47.40506 | -116.99548 | 8° | 11km/h | 18768m | 5.7m/s | -54.5°C | 0% | 0hPa | 0V | 00:00:00 | 00:00:00 | 00:00:00 | |
| WB7NNF | 2026-08-30 18:07:47 | 47.40307 | -116.99622 | 344° | 46km/h | 18659m | 7.1m/s | -54.1°C | 0% | 0hPa | 0V | 00:00:00 | 00:00:00 | 00:00:00 | |
| WB7NNF | 2026-08-30 18:07:27 | 47.40137 | -116.99677 | 14° | 64km/h | 18548m | 1.6m/s | -53.3°C | 0% | 0hPa | 0V | 00:00:00 | 00:00:00 | 00:00:00 | |
| WB7NNF | 2026-08-30 18:07:06 | 47.39980 | -116.99713 | 41° | 35km/h | 18447m | 2.5m/s | -52.6°C | 0% | 0hPa | 0V | 00:00:00 | 00:00:00 | 00:00:00 | |
| WB7NNF | 2026-08-30 18:06:45 | 47.39835 | -116.99726 | 37° | 15km/h | 18338m | 7.0m/s | -52.3°C | 0% | 0hPa | 0V | 00:00:00 | 00:00:00 | 00:00:00 | |
| WB7NNF | 2026-08-30 18:06:25 | 47.39733 | -116.99702 | 339° | 20km/h | 18233m | 7.3m/s | -52.4°C | 0% | 0hPa | 0V | 00:00:00 | 00:00:00 | 00:00:00 | |
| WB7NNF | 2026-08-30 18:06:04 | 47.39646 | -116.99649 | 344° | 31km/h | 18132m | 8.3m/s | -52.3°C | 0% | 0hPa | 0V | 00:00:00 | 00:00:00 | 00:00:00 | |
| WB7NNF | 2026-08-30 18:05:44 | 47.39608 | -116.99590 | 360° | 16km/h | 18020m | 4.5m/s | -52.0°C | 0% | 0hPa | 0V | 00:00:00 | 00:00:00 | 00:00:00 | |
| WB7NNF | 2026-08-30 18:05:23 | 47.39601 | -116.99615 | 72° | 18km/h | 17904m | 5.4m/s | -51.7°C | 0% | 0hPa | 0V | 00:00:00 | 00:00:00 | 00:00:00 | |
| WB7NNF | 2026-08-30 18:05:01 | 47.39564 | -116.99725 | 99° | 49km/h | 17791m | 2.5m/s | -51.0°C | 0% | 0hPa | 0V | 00:00:00 | 00:00:00 | 00:00:00 | |
| WB7NNF | 2026-08-30 18:04:40 | 47.39514 | -116.99922 | 86° | 60km/h | 17674m | 1.6m/s | -51.3°C | 0% | 0hPa | 0V | 00:00:00 | 00:00:00 | 00:00:00 | |
| WB7NNF | 2026-08-30 18:04:19 | 47.39413 | -117.00182 | 52° | 27km/h | 17569m | 2.2m/s | -51.5°C | 0% | 0hPa | 0V | 00:00:00 | 00:00:00 | 00:00:00 | |
| WB7NNF | 2026-08-30 18:03:59 | 47.39288 | -117.00463 | 25° | 29km/h | 17458m | 8.6m/s | -51.2°C | 0% | 0hPa | 0V | 00:00:00 | 00:00:00 | 00:00:00 | |
| WB7NNF | 2026-08-30 18:03:38 | 47.39174 | -117.00685 | 66° | 75km/h | 17352m | 5.0m/s | -50.9°C | 0% | 0hPa | 0V | 00:00:00 | 00:00:00 | 00:00:00 | |
| WB7NNF | 2026-08-30 18:03:18 | 47.39085 | -117.00901 | 56° | 15km/h | 17249m | 1.6m/s | -52.0°C | 0% | 0hPa | 0V | 00:00:00 | 00:00:00 | 00:00:00 | |
| WB7NNF | 2026-08-30 18:02:57 | 47.38993 | -117.01090 | 37° | 35km/h | 17150m | 4.4m/s | -52.5°C | 0% | 0hPa | 0V | 00:00:00 | 00:00:00 | 00:00:00 | |
| WB7NNF | 2026-08-30 18:02:37 | 47.38905 | -117.01308 | 37° | 58km/h | 17045m | 3.4m/s | -51.9°C | 0% | 0hPa | 0V | 00:00:00 | 00:00:00 | 00:00:00 | |
| WB7NNF | 2026-08-30 18:02:15 | 47.38827 | -117.01475 | 37° | 53km/h | 16941m | 0.9m/s | -51.4°C | 0% | 0hPa | 0V | 00:00:00 | 00:00:00 | 00:00:00 | |
| WB7NNF | 2026-08-30 18:01:54 | 47.38762 | -117.01694 | 101° | 24km/h | 16842m | 6.7m/s | -51.5°C | 0% | 0hPa | 0V | 00:00:00 | 00:00:00 | 00:00:00 | |
| WB7NNF | 2026-08-30 18:01:32 | 47.38750 | -117.01897 | 105° | 37km/h | 16718m | 4.4m/s | -51.8°C | 0% | 0hPa | 0V | 00:00:00 | 00:00:00 | 00:00:00 | |
| WB7NNF | 2026-08-30 18:01:09 | 47.38742 | -117.02167 | 82° | 13km/h | 16613m | 6.8m/s | -52.1°C | 0% | 0hPa | 0V | 00:00:00 | 00:00:00 | 00:00:00 | |
| WB7NNF | 2026-08-30 18:00:25 | 47.38563 | -117.02644 | 52° | 20km/h | 16373m | 3.8m/s | -51.5°C | 0% | 0hPa | 0V | 00:00:00 | 00:00:00 | 00:00:00 | |
| WB7NNF | 2026-08-30 18:00:02 | 47.38424 | -117.02893 | 84° | 24km/h | 16260m | 5.9m/s | -50.8°C | 0% | 0hPa | 0V | 00:00:00 | 00:00:00 | 00:00:00 | |
| WB7NNF | 2026-08-30 17:59:40 | 47.38345 | -117.03132 | 62° | 22km/h | 16152m | 5.0m/s | -51.9°C | 0% | 0hPa | 0V | 00:00:00 | 00:00:00 | 00:00:00 | |
| WB7NNF | 2026-08-30 17:59:17 | 47.38251 | -117.03356 | 74° | 47km/h | 16043m | 4.5m/s | -51.5°C | 0% | 0hPa | 0V | 00:00:00 | 00:00:00 | 00:00:00 | |
| WB7NNF | 2026-08-30 17:58:57 | 47.38149 | -117.03545 | 47° | 24km/h | 15941m | 4.9m/s | -51.0°C | 0% | 0hPa | 0V | 00:00:00 | 00:00:00 | 00:00:00 | |
| WB7NNF | 2026-08-30 17:58:36 | 47.38100 | -117.03792 | 38° | 16km/h | 15844m | 7.6m/s | -51.5°C | 0% | 0hPa | 0V | 00:00:00 | 00:00:00 | 00:00:00 | |
| WB7NNF | 2026-08-30 17:58:15 | 47.38042 | -117.04029 | 71° | 27km/h | 15741m | 5.9m/s | -51.6°C | 0% | 0hPa | 0V | 00:00:00 | 00:00:00 | 00:00:00 | |
| WB7NNF | 2026-08-30 17:57:55 | 47.37976 | -117.04310 | 67° | 31km/h | 15637m | 7.4m/s | -52.3°C | 0% | 0hPa | 0V | 00:00:00 | 00:00:00 | 00:00:00 | |
| WB7NNF | 2026-08-30 17:57:33 | 47.37932 | -117.04590 | 52° | 24km/h | 15530m | 5.9m/s | -52.4°C | 0% | 0hPa | 0V | 00:00:00 | 00:00:00 | 00:00:00 | |
| WB7NNF | 2026-08-30 17:57:12 | 47.37898 | -117.04824 | 82° | 35km/h | 15428m | 6.7m/s | -52.2°C | 0% | 0hPa | 0V | 00:00:00 | 00:00:00 | 00:00:00 | |
| WB7NNF | 2026-08-30 17:56:50 | 47.37838 | -117.05082 | 67° | 35km/h | 15329m | 4.9m/s | -51.7°C | 0% | 0hPa | 0V | 00:00:00 | 00:00:00 | 00:00:00 | |
| WB7NNF | 2026-08-30 17:56:29 | 47.37803 | -117.05405 | 90° | 40km/h | 15224m | 5.2m/s | -51.2°C | 0% | 0hPa | 0V | 00:00:00 | 00:00:00 | 00:00:00 | |
| WB7NNF | 2026-08-30 17:56:07 | 47.37786 | -117.05702 | 137° | 35km/h | 15124m | 3.0m/s | -50.9°C | 0% | 0hPa | 0V | 00:00:00 | 00:00:00 | 00:00:00 | |
| WB7NNF | 2026-08-30 17:55:46 | 47.37766 | -117.06008 | 114° | 31km/h | 15029m | 6.6m/s | -50.9°C | 0% | 0hPa | 0V | 00:00:00 | 00:00:00 | 00:00:00 | |
| WB7NNF | 2026-08-30 17:55:26 | 47.37762 | -117.06304 | 83° | 62km/h | 14928m | 3.3m/s | -51.5°C | 0% | 0hPa | 0V | 00:00:00 | 00:00:00 | 00:00:00 | |
| WB7NNF | 2026-08-30 17:55:05 | 47.37749 | -117.06702 | 82° | 66km/h | 14828m | 3.1m/s | -52.2°C | 0% | 0hPa | 0V | 00:00:00 | 00:00:00 | 00:00:00 | |
| WB7NNF | 2026-08-30 17:54:43 | 47.37742 | -117.07063 | 96° | 26km/h | 14723m | 4.4m/s | -52.2°C | 0% | 0hPa | 0V | 00:00:00 | 00:00:00 | 00:00:00 | |
| WB7NNF | 2026-08-30 17:54:22 | 47.37748 | -117.07377 | 110° | 44km/h | 14618m | 3.7m/s | -52.8°C | 0% | 0hPa | 0V | 00:00:00 | 00:00:00 | 00:00:00 | |
| WB7NNF | 2026-08-30 17:53:41 | 47.37766 | -117.07986 | 102° | 47km/h | 14422m | 6.1m/s | -53.1°C | 0% | 0hPa | 0V | 00:00:00 | 00:00:00 | 00:00:00 | |
| WB7NNF | 2026-08-30 17:53:21 | 47.37788 | -117.08342 | 94° | 35km/h | 14324m | 5.4m/s | -52.6°C | 0% | 0hPa | 0V | 00:00:00 | 00:00:00 | 00:00:00 | |
| WB7NNF | 2026-08-30 17:53:00 | 47.37869 | -117.08659 | 119° | 68km/h | 14226m | 4.3m/s | -52.5°C | 0% | 0hPa | 0V | 00:00:00 | 00:00:00 | 00:00:00 | |
| WB7NNF | 2026-08-30 17:52:40 | 47.38001 | -117.09047 | 116° | 73km/h | 14129m | 3.4m/s | -52.4°C | 0% | 0hPa | 0V | 00:00:00 | 00:00:00 | 00:00:00 | |
| WB7NNF | 2026-08-30 17:52:19 | 47.38119 | -117.09468 | 111° | 64km/h | 14031m | 4.9m/s | -53.1°C | 0% | 0hPa | 0V | 00:00:00 | 00:00:00 | 00:00:00 | |
| WB7NNF | 2026-08-30 17:51:58 | 47.38222 | -117.09885 | 118° | 64km/h | 13939m | 3.7m/s | -53.2°C | 0% | 0hPa | 0V | 00:00:00 | 00:00:00 | 00:00:00 | |
| WB7NNF | 2026-08-30 17:51:38 | 47.38299 | -117.10295 | 118° | 60km/h | 13844m | 5.2m/s | -53.5°C | 0% | 0hPa | 0V | 00:00:00 | 00:00:00 | 00:00:00 | |
| WB7NNF | 2026-08-30 17:51:17 | 47.38397 | -117.10630 | 106° | 60km/h | 13753m | 3.2m/s | -52.9°C | 0% | 0hPa | 0V | 00:00:00 | 00:00:00 | 00:00:00 | |
| WB7NNF | 2026-08-30 17:50:57 | 47.38483 | -117.10977 | 86° | 57km/h | 13652m | 4.7m/s | -52.1°C | 0% | 0hPa | 0V | 00:00:00 | 00:00:00 | 00:00:00 | |
| WB7NNF | 2026-08-30 17:50:36 | 47.38592 | -117.11309 | 113° | 68km/h | 13542m | 2.2m/s | -51.6°C | 0% | 0hPa | 0V | 00:00:00 | 00:00:00 | 00:00:00 | |
| WB7NNF | 2026-08-30 17:50:16 | 47.38705 | -117.11703 | 113° | 62km/h | 13448m | 3.7m/s | -51.6°C | 0% | 0hPa | 0V | 00:00:00 | 00:00:00 | 00:00:00 | |
| WB7NNF | 2026-08-30 17:49:55 | 47.38814 | -117.12083 | 109° | 68km/h | 13351m | 4.2m/s | -51.4°C | 0% | 0hPa | 0V | 00:00:00 | 00:00:00 | 00:00:00 | |
| WB7NNF | 2026-08-30 17:49:35 | 47.38958 | -117.12497 | 137° | 62km/h | 13246m | 5.8m/s | -51.1°C | 0% | 0hPa | 0V | 00:00:00 | 00:00:00 | 00:00:00 | |
| WB7NNF | 2026-08-30 17:49:14 | 47.39086 | -117.12900 | 122° | 68km/h | 13147m | 6.8m/s | -50.7°C | 0% | 0hPa | 0V | 00:00:00 | 00:00:00 | 00:00:00 | |
| WB7NNF | 2026-08-30 17:48:54 | 47.39213 | -117.13326 | 122° | 82km/h | 13043m | 4.9m/s | -50.7°C | 0% | 0hPa | 0V | 00:00:00 | 00:00:00 | 00:00:00 | |
| WB7NNF | 2026-08-30 17:48:33 | 47.39352 | -117.13755 | 113° | 68km/h | 12939m | 5.7m/s | -50.5°C | 0% | 0hPa | 0V | 00:00:00 | 00:00:00 | 00:00:00 | |
| WB7NNF | 2026-08-30 17:48:13 | 47.39500 | -117.14259 | 104° | 86km/h | 12836m | 2.3m/s | -50.0°C | 0% | 0hPa | 0V | 00:00:00 | 00:00:00 | 00:00:00 | |
| WB7NNF | 2026-08-30 17:47:52 | 47.39649 | -117.14767 | 125° | 68km/h | 12742m | 4.7m/s | -50.2°C | 0% | 0hPa | 0V | 00:00:00 | 00:00:00 | 00:00:00 | |
| WB7NNF | 2026-08-30 17:47:31 | 47.39784 | -117.15269 | 119° | 68km/h | 12631m | 5.9m/s | -50.4°C | 0% | 0hPa | 0V | 00:00:00 | 00:00:00 | 00:00:00 | |
| WB7NNF | 2026-08-30 17:47:09 | 47.39979 | -117.15670 | 115° | 64km/h | 12540m | 3.4m/s | -51.1°C | 0% | 0hPa | 0V | 00:00:00 | 00:00:00 | 00:00:00 | |
| WB7NNF | 2026-08-30 17:46:49 | 47.40209 | -117.16128 | 118° | 80km/h | 12446m | 4.5m/s | -51.6°C | 0% | 0hPa | 0V | 00:00:00 | 00:00:00 | 00:00:00 | |
| WB7NNF | 2026-08-30 17:46:28 | 47.40475 | -117.16566 | 138° | 71km/h | 12357m | 5.9m/s | -51.3°C | 0% | 0hPa | 0V | 00:00:00 | 00:00:00 | 00:00:00 | |
| WB7NNF | 2026-08-30 17:46:08 | 47.40751 | -117.16990 | 128° | 108km/h | 12265m | 4.9m/s | -52.5°C | 0% | 0hPa | 0V | 00:00:00 | 00:00:00 | 00:00:00 | |
| WB7NNF | 2026-08-30 17:45:47 | 47.41088 | -117.17460 | 148° | 82km/h | 12170m | 4.3m/s | -53.2°C | 0% | 0hPa | 0V | 00:00:00 | 00:00:00 | 00:00:00 | |
| WB7NNF | 2026-08-30 17:45:26 | 47.41438 | -117.17848 | 136° | 88km/h | 12083m | 5.0m/s | -52.9°C | 0% | 0hPa | 0V | 00:00:00 | 00:00:00 | 00:00:00 | |
| WB7NNF | 2026-08-30 17:45:06 | 47.41830 | -117.18284 | 127° | 88km/h | 11991m | 3.6m/s | -53.5°C | 0% | 0hPa | 0V | 00:00:00 | 00:00:00 | 00:00:00 | |
| WB7NNF | 2026-08-30 17:44:45 | 47.42200 | -117.18730 | 139° | 95km/h | 11902m | 6.2m/s | -53.7°C | 0% | 0hPa | 0V | 00:00:00 | 00:00:00 | 00:00:00 | |
| WB7NNF | 2026-08-30 17:44:25 | 47.42636 | -117.19208 | 142° | 111km/h | 11812m | 4.8m/s | -53.2°C | 0% | 0hPa | 0V | 00:00:00 | 00:00:00 | 00:00:00 | |
| WB7NNF | 2026-08-30 17:44:04 | 47.43073 | -117.19739 | 132° | 124km/h | 11717m | 2.2m/s | -53.4°C | 0% | 0hPa | 0V | 00:00:00 | 00:00:00 | 00:00:00 | |
| WB7NNF | 2026-08-30 17:43:44 | 47.43546 | -117.20373 | 132° | 115km/h | 11611m | 7.2m/s | -54.3°C | 0% | 0hPa | 0V | 00:00:00 | 00:00:00 | 00:00:00 | |
| WB7NNF | 2026-08-30 17:43:23 | 47.43986 | -117.20968 | 145° | 106km/h | 11519m | 5.3m/s | -54.0°C | 0% | 0hPa | 0V | 00:00:00 | 00:00:00 | 00:00:00 | |
| WB7NNF | 2026-08-30 17:42:42 | 47.44941 | -117.22226 | 136° | 146km/h | 11308m | 3.8m/s | -52.9°C | 0% | 0hPa | 0V | 00:00:00 | 00:00:00 | 00:00:00 | |
| WB7NNF | 2026-08-30 17:42:22 | 47.45470 | -117.22921 | 137° | 137km/h | 11220m | 5.1m/s | -52.6°C | 0% | 0hPa | 0V | 00:00:00 | 00:00:00 | 00:00:00 | |
| WB7NNF | 2026-08-30 17:42:01 | 47.45956 | -117.23584 | 144° | 130km/h | 11138m | 6.0m/s | -52.5°C | 0% | 0hPa | 0V | 00:00:00 | 00:00:00 | 00:00:00 | |
| WB7NNF | 2026-08-30 17:41:21 | 47.46946 | -117.24923 | 146° | 120km/h | 10976m | 1.8m/s | -51.4°C | 0% | 0hPa | 0V | 00:00:00 | 00:00:00 | 00:00:00 | |
| WB7NNF | 2026-08-30 17:41:00 | 47.47444 | -117.25628 | 141° | 122km/h | 10896m | 2.2m/s | -50.9°C | 0% | 0hPa | 0V | 00:00:00 | 00:00:00 | 00:00:00 | |
| WB7NNF | 2026-08-30 17:40:39 | 47.47925 | -117.26326 | 138° | 113km/h | 10812m | 3.2m/s | -50.2°C | 0% | 0hPa | 0V | 00:00:00 | 00:00:00 | 00:00:00 | |
| WB7NNF | 2026-08-30 17:40:19 | 47.48386 | -117.27000 | 140° | 126km/h | 10731m | 2.8m/s | -49.5°C | 0% | 0hPa | 0V | 00:00:00 | 00:00:00 | 00:00:00 | |
| WB7NNF | 2026-08-30 17:39:58 | 47.48862 | -117.27682 | 130° | 111km/h | 10644m | 4.9m/s | -49.2°C | 0% | 0hPa | 0V | 00:00:00 | 00:00:00 | 00:00:00 | |
| WB7NNF | 2026-08-30 17:39:37 | 47.49302 | -117.28311 | 137° | 115km/h | 10562m | 5.8m/s | -48.4°C | 0% | 0hPa | 0V | 00:00:00 | 00:00:00 | 00:00:00 | |
| WB7NNF | 2026-08-30 17:39:17 | 47.49749 | -117.28974 | 140° | 124km/h | 10461m | 4.9m/s | -47.6°C | 0% | 0hPa | 0V | 00:00:00 | 00:00:00 | 00:00:00 | |
| WB7NNF | 2026-08-30 17:38:56 | 47.50153 | -117.29633 | 136° | 130km/h | 10378m | 5.7m/s | -47.3°C | 0% | 0hPa | 0V | 00:00:00 | 00:00:00 | 00:00:00 | |
| WB7NNF | 2026-08-30 17:38:36 | 47.50605 | -117.30336 | 142° | 135km/h | 10287m | 4.4m/s | -46.7°C | 0% | 0hPa | 0V | 00:00:00 | 00:00:00 | 00:00:00 | |
| WB7NNF | 2026-08-30 17:38:15 | 47.51026 | -117.31023 | 127° | 124km/h | 10199m | 5.8m/s | -45.9°C | 0% | 0hPa | 0V | 00:00:00 | 00:00:00 | 00:00:00 | |
| WB7NNF | 2026-08-30 17:37:55 | 47.51464 | -117.31747 | 132° | 119km/h | 10104m | 5.4m/s | -45.0°C | 0% | 0hPa | 0V | 00:00:00 | 00:00:00 | 00:00:00 | |
| WB7NNF | 2026-08-30 17:37:34 | 47.51878 | -117.32417 | 134° | 110km/h | 10007m | 4.8m/s | -44.2°C | 0% | 0hPa | 0V | 00:00:00 | 00:00:00 | 00:00:00 | |
| WB7NNF | 2026-08-30 17:37:14 | 47.52304 | -117.33125 | 137° | 126km/h | 9907m | 5.1m/s | -43.5°C | 0% | 0hPa | 0V | 00:00:00 | 00:00:00 | 00:00:00 | |
| WB7NNF | 2026-08-30 17:36:53 | 47.52715 | -117.33773 | 131° | 128km/h | 9814m | 5.6m/s | -42.7°C | 0% | 0hPa | 0V | 00:00:00 | 00:00:00 | 00:00:00 | |
| WB7NNF | 2026-08-30 17:36:33 | 47.53143 | -117.34450 | 133° | 113km/h | 9714m | 4.8m/s | -41.9°C | 0% | 0hPa | 0V | 00:00:00 | 00:00:00 | 00:00:00 | |
| WB7NNF | 2026-08-30 17:36:12 | 47.53562 | -117.35067 | 142° | 119km/h | 9618m | 6.5m/s | -41.1°C | 0% | 0hPa | 0V | 00:00:00 | 00:00:00 | 00:00:00 | |
| WB7NNF | 2026-08-30 17:35:52 | 47.53990 | -117.35762 | 135° | 131km/h | 9468m | 5.7m/s | -40.0°C | 0% | 0hPa | 0V | 00:00:00 | 00:00:00 | 00:00:00 | |
| WB7NNF | 2026-08-30 17:35:31 | 47.54432 | -117.36406 | 146° | 130km/h | 9359m | 4.0m/s | -39.0°C | 0% | 0hPa | 0V | 00:00:00 | 00:00:00 | 00:00:00 | |
| WB7NNF | 2026-08-30 17:35:10 | 47.54847 | -117.36982 | 137° | 124km/h | 9267m | 5.3m/s | -38.1°C | 0% | 0hPa | 0V | 00:00:00 | 00:00:00 | 00:00:00 | |
| WB7NNF | 2026-08-30 17:34:50 | 47.55286 | -117.37577 | 130° | 102km/h | 9174m | 4.0m/s | -37.4°C | 0% | 0hPa | 0V | 00:00:00 | 00:00:00 | 00:00:00 | |
| WB7NNF | 2026-08-30 17:34:29 | 47.55704 | -117.38144 | 145° | 106km/h | 9084m | 4.1m/s | -36.8°C | 0% | 0hPa | 0V | 00:00:00 | 00:00:00 | 00:00:00 | |
| WB7NNF | 2026-08-30 17:34:09 | 47.56131 | -117.38722 | 133° | 110km/h | 8991m | 1.8m/s | -36.3°C | 0% | 0hPa | 0V | 00:00:00 | 00:00:00 | 00:00:00 | |
| WB7NNF | 2026-08-30 17:33:48 | 47.56536 | -117.39249 | 133° | 89km/h | 8902m | 2.6m/s | -35.8°C | 0% | 0hPa | 0V | 00:00:00 | 00:00:00 | 00:00:00 | |
| WB7NNF | 2026-08-30 17:33:28 | 47.56966 | -117.39770 | 140° | 88km/h | 8817m | 3.0m/s | -35.2°C | 0% | 0hPa | 0V | 00:00:00 | 00:00:00 | 00:00:00 | |
| WB7NNF | 2026-08-30 17:33:07 | 47.57366 | -117.40265 | 142° | 120km/h | 8740m | 1.9m/s | -34.8°C | 0% | 0hPa | 0V | 00:00:00 | 00:00:00 | 00:00:00 | |
| WB7NNF | 2026-08-30 17:32:47 | 47.57765 | -117.40765 | 139° | 110km/h | 8654m | 2.9m/s | -34.6°C | 0% | 0hPa | 0V | 00:00:00 | 00:00:00 | 00:00:00 | |
| WB7NNF | 2026-08-30 17:32:26 | 47.58127 | -117.41243 | 148° | 88km/h | 8564m | 2.8m/s | -33.8°C | 0% | 0hPa | 0V | 00:00:00 | 00:00:00 | 00:00:00 | |
| WB7NNF | 2026-08-30 17:32:06 | 47.58503 | -117.41751 | 149° | 86km/h | 8477m | 4.6m/s | -33.2°C | 0% | 0hPa | 0V | 00:00:00 | 00:00:00 | 00:00:00 | |
| WB7NNF | 2026-08-30 17:31:45 | 47.58862 | -117.42204 | 131° | 102km/h | 8397m | 5.0m/s | -32.7°C | 0% | 0hPa | 0V | 00:00:00 | 00:00:00 | 00:00:00 | |
| WB7NNF | 2026-08-30 17:31:25 | 47.59248 | -117.42727 | 138° | 82km/h | 8313m | 4.7m/s | -32.0°C | 0% | 0hPa | 0V | 00:00:00 | 00:00:00 | 00:00:00 | |
| WB7NNF | 2026-08-30 17:31:04 | 47.59583 | -117.43222 | 132° | 108km/h | 8227m | 4.4m/s | -31.5°C | 0% | 0hPa | 0V | 00:00:00 | 00:00:00 | 00:00:00 | |
| WB7NNF | 2026-08-30 17:30:44 | 47.59944 | -117.43719 | 134° | 93km/h | 8131m | 6.2m/s | -31.6°C | 0% | 0hPa | 0V | 00:00:00 | 00:00:00 | 00:00:00 | |
| WB7NNF | 2026-08-30 17:30:23 | 47.60282 | -117.44233 | 141° | 88km/h | 8030m | 6.5m/s | -30.7°C | 0% | 0hPa | 0V | 00:00:00 | 00:00:00 | 00:00:00 | |
| WB7NNF | 2026-08-30 17:30:01 | 47.60640 | -117.44743 | 129° | 99km/h | 7920m | 3.9m/s | -29.9°C | 0% | 0hPa | 0V | 00:00:00 | 00:00:00 | 00:00:00 | |
| WB7NNF | 2026-08-30 17:29:40 | 47.60949 | -117.45210 | 137° | 78km/h | 7814m | 5.0m/s | -29.1°C | 0% | 0hPa | 0V | 00:00:00 | 00:00:00 | 00:00:00 | |
| WB7NNF | 2026-08-30 17:29:20 | 47.61288 | -117.45687 | 138° | 91km/h | 7716m | 4.9m/s | -28.5°C | 0% | 0hPa | 0V | 00:00:00 | 00:00:00 | 00:00:00 | |
| WB7NNF | 2026-08-30 17:28:59 | 47.61638 | -117.46125 | 143° | 89km/h | 7596m | 9.3m/s | -27.8°C | 0% | 0hPa | 0V | 00:00:00 | 00:00:00 | 00:00:00 | |
| WB7NNF | 2026-08-30 17:28:38 | 47.61961 | -117.46528 | 133° | 84km/h | 7483m | 4.9m/s | -27.0°C | 0% | 0hPa | 0V | 00:00:00 | 00:00:00 | 00:00:00 | |
| WB7NNF | 2026-08-30 17:28:18 | 47.62274 | -117.46927 | 132° | 69km/h | 7370m | 7.9m/s | -26.7°C | 0% | 0hPa | 0V | 00:00:00 | 00:00:00 | 00:00:00 | |
| WB7NNF | 2026-08-30 17:27:57 | 47.62610 | -117.47240 | 136° | 73km/h | 7243m | 7.2m/s | -25.8°C | 0% | 0hPa | 0V | 00:00:00 | 00:00:00 | 00:00:00 | |
| WB7NNF | 2026-08-30 17:27:37 | 47.62949 | -117.47589 | 144° | 89km/h | 7137m | 5.2m/s | -26.0°C | 0% | 0hPa | 0V | 00:00:00 | 00:00:00 | 00:00:00 | |
| WB7NNF | 2026-08-30 17:27:16 | 47.63330 | -117.47954 | 140° | 78km/h | 7025m | 9.4m/s | -25.9°C | 0% | 0hPa | 0V | 00:00:00 | 00:00:00 | 00:00:00 | |
| WB7NNF | 2026-08-30 17:26:56 | 47.63660 | -117.48335 | 149° | 66km/h | 6900m | 4.1m/s | -24.7°C | 0% | 0hPa | 0V | 00:00:00 | 00:00:00 | 00:00:00 | |
| WB7NNF | 2026-08-30 17:26:35 | 47.63983 | -117.48724 | 127° | 77km/h | 6780m | 4.0m/s | -23.7°C | 0% | 0hPa | 0V | 00:00:00 | 00:00:00 | 00:00:00 | |
| WB7NNF | 2026-08-30 17:26:15 | 47.64342 | -117.49153 | 140° | 93km/h | 6677m | 3.9m/s | -22.9°C | 0% | 0hPa | 0V | 00:00:00 | 00:00:00 | 00:00:00 | |
| WB7NNF | 2026-08-30 17:25:54 | 47.64680 | -117.49506 | 156° | 91km/h | 6571m | 4.9m/s | -22.2°C | 0% | 0hPa | 0V | 00:00:00 | 00:00:00 | 00:00:00 | |
| WB7NNF | 2026-08-30 17:25:33 | 47.65019 | -117.49808 | 141° | 77km/h | 6458m | 5.5m/s | -21.4°C | 0% | 0hPa | 0V | 00:00:00 | 00:00:00 | 00:00:00 | |
| WB7NNF | 2026-08-30 17:25:10 | 47.65380 | -117.50190 | 144° | 93km/h | 6350m | 3.2m/s | -20.6°C | 0% | 0hPa | 0V | 00:00:00 | 00:00:00 | 00:00:00 | |
| WB7NNF | 2026-08-30 17:24:49 | 47.65693 | -117.50517 | 134° | 64km/h | 6252m | 4.2m/s | -20.0°C | 0% | 0hPa | 0V | 00:00:00 | 00:00:00 | 00:00:00 | |
| WB7NNF | 2026-08-30 17:24:08 | 47.66251 | -117.51070 | 141° | 75km/h | 6017m | 4.2m/s | -18.6°C | 0% | 0hPa | 0V | 00:00:00 | 00:00:00 | 00:00:00 | |
| WB7NNF | 2026-08-30 17:23:47 | 47.66500 | -117.51348 | 160° | 75km/h | 5911m | 3.4m/s | -17.8°C | 0% | 0hPa | 0V | 00:00:00 | 00:00:00 | 00:00:00 | |
| WB7NNF | 2026-08-30 17:23:27 | 47.66726 | -117.51685 | 137° | 38km/h | 5796m | 4.2m/s | -16.9°C | 0% | 0hPa | 0V | 00:00:00 | 00:00:00 | 00:00:00 | |
| WB7NNF | 2026-08-30 17:23:06 | 47.66988 | -117.52035 | 123° | 60km/h | 5685m | 8.2m/s | -16.2°C | 0% | 0hPa | 0V | 00:00:00 | 00:00:00 | 00:00:00 | |
| WB7NNF | 2026-08-30 17:22:37 | 47.67271 | -117.52556 | 138° | 44km/h | 5527m | 8.5m/s | -15.3°C | 0% | 0hPa | 0V | 00:00:00 | 00:00:00 | 00:00:00 | |
| WB7NNF | 2026-08-30 17:22:17 | 47.67424 | -117.52860 | 112° | 69km/h | 5398m | 7.3m/s | -14.5°C | 0% | 0hPa | 0V | 00:00:00 | 00:00:00 | 00:00:00 | |
| WB7NNF | 2026-08-30 17:21:54 | 47.67587 | -117.53176 | 154° | 62km/h | 5290m | 5.1m/s | -13.8°C | 0% | 0hPa | 0V | 00:00:00 | 00:00:00 | 00:00:00 | |
| WB7NNF | 2026-08-30 17:21:31 | 47.67763 | -117.53474 | 125° | 60km/h | 5159m | 4.7m/s | -12.7°C | 0% | 0hPa | 0V | 00:00:00 | 00:00:00 | 00:00:00 | |
| WB7NNF | 2026-08-30 17:21:10 | 47.67907 | -117.53751 | 117° | 46km/h | 5048m | 7.1m/s | -11.8°C | 0% | 0hPa | 0V | 00:00:00 | 00:00:00 | 00:00:00 | |
| WB7NNF | 2026-08-30 17:20:50 | 47.68040 | -117.54065 | 135° | 51km/h | 4936m | 6.9m/s | -11.0°C | 0% | 0hPa | 0V | 00:00:00 | 00:00:00 | 00:00:00 | |
| WB7NNF | 2026-08-30 17:20:29 | 47.68211 | -117.54341 | 106° | 42km/h | 4824m | 6.6m/s | -10.1°C | 0% | 0hPa | 0V | 00:00:00 | 00:00:00 | 00:00:00 |